Time;durP1;ratioP1;P1;durP2;ratioP2;P2;SDS_P1;SDS_P2;PMS_P1;PMS_P2;Temp;Humidity;BMP_temperature;BMP_pressure;BME280_temperature;BME280_humidity;BME280_pressure;Samples;Min_cycle;Max_cycle;Signal;HPM_P1;HPM_P2
2023/01/25 00:01:17;;;;;;;0.08;0.08;;;2.60;85.10;;;;;;4969305;28;20053;-70
2023/01/25 00:03:42;;;;;;;0.00;0.00;;;2.60;85.20;;;;;;4961126;28;20049;-70
2023/01/25 00:06:08;;;;;;;0.00;0.00;;;2.50;85.10;;;;;;4989740;28;20550;-70
2023/01/25 00:08:33;;;;;;;0.00;0.00;;;2.50;85.10;;;;;;4989381;28;20683;-70
2023/01/25 00:10:59;;;;;;;0.00;0.00;;;2.40;85.00;;;;;;4989651;28;20408;-70
2023/01/25 00:13:25;;;;;;;0.35;0.35;;;2.40;85.00;;;;;;4987965;28;20113;-70
2023/01/25 00:15:51;;;;;;;0.00;0.00;;;2.40;85.10;;;;;;4981294;28;20078;-70
2023/01/25 00:18:17;;;;;;;0.00;0.00;;;2.40;85.20;;;;;;4971468;28;20519;-70
2023/01/25 00:20:43;;;;;;;0.00;0.00;;;2.40;85.20;;;;;;4989707;28;20050;-70
2023/01/25 00:23:08;;;;;;;0.05;0.05;;;2.40;85.30;;;;;;4989485;28;20101;-70
2023/01/25 00:28:03;;;;;;;0.20;0.20;;;2.40;85.10;;;;;;4925857;23;20063;-70
2023/01/25 00:30:28;;;;;;;0.10;0.10;;;2.20;84.30;;;;;;4949474;28;20055;-70
2023/01/25 00:33:05;;;;;;;0.10;0.10;;;2.20;85.20;;;;;;4950542;29;20047;-70
2023/01/25 00:35:33;;;;;;;0.00;0.00;;;2.10;85.20;;;;;;4933146;29;20083;-70
2023/01/25 00:38:01;;;;;;;0.10;0.10;;;2.10;85.20;;;;;;4962924;28;20039;-70
2023/01/25 00:40:27;;;;;;;0.00;0.00;;;2.10;85.30;;;;;;4955303;28;20539;-70
2023/01/25 00:42:53;;;;;;;0.10;0.10;;;2.10;85.50;;;;;;4969871;28;20039;-70
2023/01/25 00:45:18;;;;;;;0.00;0.00;;;2.10;85.60;;;;;;4969689;28;20492;-70
2023/01/25 00:47:44;;;;;;;0.00;0.00;;;2.20;85.50;;;;;;4969040;28;20178;-70
2023/01/25 00:50:10;;;;;;;0.88;0.82;;;2.20;85.60;;;;;;4953598;28;20078;-70
2023/01/25 00:52:35;;;;;;;0.00;0.00;;;2.20;85.70;;;;;;4969495;28;20550;-70
2023/01/25 00:55:01;;;;;;;0.10;0.10;;;2.20;85.70;;;;;;4970062;28;20058;-70
2023/01/25 00:57:27;;;;;;;0.00;0.00;;;2.20;85.60;;;;;;4972678;28;20050;-70
2023/01/25 00:59:53;;;;;;;0.10;0.10;;;2.20;85.70;;;;;;4972187;28;20070;-70
2023/01/25 01:02:18;;;;;;;0.10;0.10;;;2.20;85.70;;;;;;4973022;28;20070;-70
2023/01/25 01:04:44;;;;;;;0.00;0.00;;;2.20;85.80;;;;;;4972285;28;20095;-70
2023/01/25 01:07:12;;;;;;;0.17;0.17;;;2.20;85.90;;;;;;4972906;28;20049;-70
2023/01/25 01:09:38;;;;;;;0.00;0.00;;;2.20;85.90;;;;;;4943742;28;20047;-70
2023/01/25 01:12:03;;;;;;;0.00;0.00;;;2.20;85.80;;;;;;4973163;28;20453;-70
2023/01/25 01:14:29;;;;;;;0.00;0.00;;;2.20;85.90;;;;;;4970290;28;21692;-70
2023/01/25 01:16:55;;;;;;;0.00;0.00;;;2.20;86.00;;;;;;4970741;28;20047;-70
2023/01/25 01:19:20;;;;;;;0.00;0.00;;;2.20;85.90;;;;;;4962944;28;20040;-70
2023/01/25 01:21:46;;;;;;;0.10;0.10;;;2.30;85.90;;;;;;4971500;28;20101;-70
2023/01/25 01:24:11;;;;;;;0.15;0.15;;;2.20;85.90;;;;;;4972860;28;20051;-70
2023/01/25 01:26:37;;;;;;;4.80;0.75;;;2.10;85.80;;;;;;4956909;28;20059;-70
2023/01/25 01:29:03;;;;;;;0.00;0.00;;;2.10;85.70;;;;;;4944043;28;20082;-70
2023/01/25 01:31:29;;;;;;;0.00;0.00;;;2.10;85.70;;;;;;4947837;28;20508;-70
2023/01/25 01:33:57;;;;;;;0.43;0.43;;;2.00;85.70;;;;;;4972889;28;20090;-70
2023/01/25 01:36:24;;;;;;;0.10;0.10;;;2.00;85.90;;;;;;4925498;29;20051;-70
2023/01/25 01:38:51;;;;;;;0.00;0.00;;;2.10;86.00;;;;;;4946116;28;20045;-70
2023/01/25 01:41:17;;;;;;;0.00;0.00;;;2.10;85.90;;;;;;4972614;28;20507;-70
2023/01/25 01:43:43;;;;;;;0.00;0.00;;;2.10;86.10;;;;;;4972566;28;20082;-70
2023/01/25 01:46:28;;;;;;;0.22;0.22;;;2.10;86.10;;;;;;4963859;28;20087;-70
2023/01/25 01:49:08;;;;;;;0.00;0.00;;;2.10;86.00;;;;;;4969084;28;20058;-70
2023/01/25 01:52:02;;;;;;;0.00;0.00;;;2.10;85.90;;;;;;4972145;28;20057;-70
2023/01/25 01:54:37;;;;;;;0.00;0.00;;;2.10;85.90;;;;;;4972371;28;20047;-70
2023/01/25 01:57:11;;;;;;;0.00;0.00;;;2.20;86.00;;;;;;4953257;28;20472;-70
2023/01/25 01:59:47;;;;;;;0.00;0.00;;;2.20;86.00;;;;;;4958314;28;20035;-70
2023/01/25 02:02:13;;;;;;;0.10;0.10;;;2.20;86.00;;;;;;4953039;28;20441;-70
2023/01/25 02:04:40;;;;;;;0.25;0.25;;;2.20;85.80;;;;;;4952848;28;20042;-70
2023/01/25 02:07:17;;;;;;;0.30;0.30;;;2.10;85.80;;;;;;4956270;28;20047;-70
2023/01/25 02:09:43;;;;;;;0.00;0.00;;;2.10;85.80;;;;;;4961209;28;20041;-70
2023/01/25 02:12:10;;;;;;;0.32;0.32;;;2.00;85.80;;;;;;4952723;28;20054;-70
2023/01/25 02:14:39;;;;;;;0.10;0.10;;;2.00;85.80;;;;;;4952625;28;20126;-70
2023/01/25 02:17:05;;;;;;;0.10;0.10;;;2.00;85.80;;;;;;4970947;28;20047;-70
2023/01/25 02:19:57;;;;;;;0.00;0.00;;;1.90;85.80;;;;;;4962207;28;20058;-70
2023/01/25 02:22:30;;;;;;;;;;;1.90;85.70;;;;;;4952878;28;20102;-70
2023/01/25 02:25:03;;;;;;;;;;;1.80;85.70;;;;;;4952981;29;20142;-70
2023/01/25 02:27:28;;;;;;;0.00;0.00;;;1.70;85.80;;;;;;4952757;28;19970;-70
2023/01/25 02:29:54;;;;;;;0.00;0.00;;;1.70;85.90;;;;;;4961689;28;20087;-70
2023/01/25 02:32:19;;;;;;;0.32;0.32;;;1.80;86.00;;;;;;4958636;28;20101;-70
2023/01/25 02:34:45;;;;;;;0.00;0.00;;;1.80;86.00;;;;;;4970487;28;20407;-70
2023/01/25 02:37:14;;;;;;;0.10;0.10;;;1.80;86.00;;;;;;4971602;28;20054;-70
2023/01/25 02:39:41;;;;;;;0.03;0.03;;;1.80;86.00;;;;;;4953541;28;20050;-70
2023/01/25 02:42:07;;;;;;;0.00;0.00;;;1.90;86.00;;;;;;4934865;29;20047;-70
2023/01/25 02:44:33;;;;;;;0.00;0.00;;;1.80;86.00;;;;;;4959436;28;20093;-70
2023/01/25 02:46:58;;;;;;;0.10;0.10;;;1.80;86.10;;;;;;4954462;28;20051;-70
2023/01/25 02:49:24;;;;;;;0.00;0.00;;;1.80;86.10;;;;;;4922630;29;20055;-70
2023/01/25 02:51:56;;;;;;;0.05;0.05;;;1.90;86.10;;;;;;4951916;28;20081;-70
2023/01/25 02:54:24;;;;;;;0.10;0.10;;;1.90;86.10;;;;;;4966171;28;20051;-70
2023/01/25 02:56:51;;;;;;;0.00;0.00;;;1.90;86.00;;;;;;4969702;28;20059;-70
2023/01/25 02:59:17;;;;;;;0.00;0.00;;;1.90;86.10;;;;;;4942188;28;20496;-70
2023/01/25 03:01:44;;;;;;;0.00;0.00;;;1.90;86.00;;;;;;4952234;28;20058;-70
2023/01/25 03:04:10;;;;;;;0.00;0.00;;;1.80;85.90;;;;;;4947124;28;20049;-70
2023/01/25 03:06:36;;;;;;;2.05;0.50;;;1.80;86.10;;;;;;4960146;28;20463;-70
2023/01/25 03:09:03;;;;;;;0.00;0.00;;;1.80;86.10;;;;;;4958821;28;20050;-70
2023/01/25 03:11:28;;;;;;;0.00;0.00;;;1.80;86.10;;;;;;4965410;28;20035;-70
2023/01/25 03:13:54;;;;;;;0.00;0.00;;;1.70;85.80;;;;;;4958063;28;20117;-70
2023/01/25 03:16:20;;;;;;;0.00;0.00;;;1.70;86.00;;;;;;4956666;28;20039;-70
2023/01/25 03:18:45;;;;;;;0.03;0.03;;;1.70;86.00;;;;;;4963281;28;20046;-70
2023/01/25 03:21:15;;;;;;;0.00;0.00;;;1.60;85.90;;;;;;4949513;28;20043;-70
2023/01/25 03:23:41;;;;;;;1.50;0.95;;;1.60;85.90;;;;;;4949805;28;20039;-70
2023/01/25 03:26:27;;;;;;;0.00;0.00;;;1.60;86.00;;;;;;4970823;28;20917;-70
2023/01/25 03:28:53;;;;;;;0.00;0.00;;;1.60;86.10;;;;;;4946548;28;20102;-70
2023/01/25 03:31:19;;;;;;;0.00;0.00;;;1.70;86.10;;;;;;4951222;28;20404;-70
2023/01/25 03:33:45;;;;;;;0.00;0.00;;;1.70;86.10;;;;;;4959181;28;20078;-70
2023/01/25 03:36:11;;;;;;;0.88;0.88;;;1.70;86.10;;;;;;4970405;28;20042;-70
2023/01/25 03:38:36;;;;;;;0.10;0.10;;;1.60;86.10;;;;;;4950068;28;20039;-70
2023/01/25 03:41:03;;;;;;;0.38;0.38;;;1.40;85.70;;;;;;4958029;28;20106;-70
2023/01/25 03:43:29;;;;;;;0.08;0.08;;;1.40;86.20;;;;;;4956493;28;20039;-70
2023/01/25 03:45:59;;;;;;;0.08;0.08;;;1.30;86.30;;;;;;4953128;28;20058;-69
2023/01/25 03:48:26;;;;;;;0.30;0.30;;;1.20;86.30;;;;;;4963992;28;20035;-70
2023/01/25 03:50:54;;;;;;;0.00;0.00;;;1.20;86.40;;;;;;4951320;28;20043;-70
2023/01/25 03:53:29;;;;;;;0.10;0.10;;;1.10;86.60;;;;;;4951853;28;20079;-70
2023/01/25 03:55:58;;;;;;;2.05;0.98;;;1.20;86.70;;;;;;4959929;28;20550;-70
2023/01/25 03:58:24;;;;;;;0.82;0.82;;;1.20;86.70;;;;;;4968073;28;20039;-70
2023/01/25 04:00:50;;;;;;;0.00;0.00;;;1.20;87.00;;;;;;4969139;28;20484;-70
2023/01/25 04:03:18;;;;;;;0.00;0.00;;;1.20;87.00;;;;;;4967020;28;20055;-70
2023/01/25 04:05:44;;;;;;;0.15;0.15;;;1.20;87.00;;;;;;4950978;28;20070;-70
2023/01/25 04:08:09;;;;;;;0.00;0.00;;;1.20;86.80;;;;;;4936839;28;20046;-70
2023/01/25 04:10:35;;;;;;;0.00;0.00;;;1.30;86.80;;;;;;4966573;28;20042;-69
2023/01/25 04:13:00;;;;;;;0.00;0.00;;;1.30;86.80;;;;;;4933720;28;20087;-70
2023/01/25 04:15:26;;;;;;;0.10;0.10;;;1.30;86.80;;;;;;4950775;28;20039;-70
2023/01/25 04:17:51;;;;;;;0.00;0.00;;;1.30;86.80;;;;;;4952221;28;20049;-70
2023/01/25 04:20:17;;;;;;;0.00;0.00;;;1.30;86.80;;;;;;4964495;28;20038;-70
2023/01/25 04:22:43;;;;;;;0.00;0.00;;;1.40;86.70;;;;;;4936969;28;20062;-70
2023/01/25 04:25:08;;;;;;;0.00;0.00;;;1.40;86.70;;;;;;4969948;28;20766;-70
2023/01/25 04:27:34;;;;;;;0.00;0.00;;;1.40;86.70;;;;;;4969455;28;20086;-70
2023/01/25 04:30:00;;;;;;;0.00;0.00;;;1.40;86.60;;;;;;4969386;28;20055;-70
2023/01/25 04:32:25;;;;;;;0.00;0.00;;;1.40;86.50;;;;;;4972742;28;20056;-70
2023/01/25 04:34:51;;;;;;;0.10;0.10;;;1.30;86.40;;;;;;4958781;28;20039;-70
2023/01/25 04:37:16;;;;;;;0.00;0.00;;;1.30;86.40;;;;;;4954689;28;20054;-70
2023/01/25 04:39:42;;;;;;;0.00;0.00;;;1.30;86.40;;;;;;4935325;28;20403;-70
2023/01/25 04:42:07;;;;;;;0.00;0.00;;;1.30;86.30;;;;;;4973714;28;20415;-70
2023/01/25 04:44:33;;;;;;;0.10;0.10;;;1.20;86.00;;;;;;4961335;28;20118;-70
2023/01/25 04:46:58;;;;;;;0.10;0.10;;;1.20;86.30;;;;;;4954372;28;20110;-70
2023/01/25 04:49:24;;;;;;;0.22;0.22;;;1.00;86.30;;;;;;4957652;28;20047;-70
2023/01/25 04:51:49;;;;;;;0.52;0.52;;;0.90;86.40;;;;;;4940205;28;20041;-70
2023/01/25 04:54:15;;;;;;;0.10;0.10;;;0.90;86.80;;;;;;4972649;28;20049;-70
2023/01/25 04:56:40;;;;;;;0.00;0.00;;;0.90;86.90;;;;;;4972125;28;20043;-69
2023/01/25 04:59:06;;;;;;;0.47;0.40;;;0.90;86.90;;;;;;4968601;28;20047;-70
2023/01/25 05:01:34;;;;;;;0.05;0.05;;;0.80;86.70;;;;;;4966870;28;20047;-70
2023/01/25 05:04:00;;;;;;;0.00;0.00;;;0.90;86.90;;;;;;4955247;28;20055;-70
2023/01/25 05:06:25;;;;;;;0.10;0.10;;;0.90;86.80;;;;;;4938944;29;20051;-70
2023/01/25 05:08:51;;;;;;;0.10;0.10;;;0.90;86.90;;;;;;4942415;28;20143;-70
2023/01/25 05:11:16;;;;;;;0.35;0.35;;;1.00;86.80;;;;;;4973710;28;20046;-69
2023/01/25 05:13:42;;;;;;;0.00;0.00;;;1.00;86.80;;;;;;4974032;28;20042;-70
2023/01/25 05:16:07;;;;;;;0.08;0.08;;;1.00;86.80;;;;;;4967313;28;20126;-70
2023/01/25 05:18:33;;;;;;;0.00;0.00;;;1.10;86.80;;;;;;4940903;28;20078;-70
2023/01/25 05:20:58;;;;;;;0.08;0.08;;;1.00;86.70;;;;;;4956023;28;20473;-70
2023/01/25 05:23:24;;;;;;;0.00;0.00;;;1.00;86.90;;;;;;4954547;28;20064;-70
2023/01/25 05:28:34;;;;;;;0.00;0.00;;;1.00;87.00;;;;;;4956362;28;20051;-70
2023/01/25 05:31:03;;;;;;;0.52;0.45;;;1.10;87.00;;;;;;4921331;29;20059;-70
2023/01/25 05:33:28;;;;;;;0.00;0.00;;;1.10;87.00;;;;;;4955350;28;20069;-70
2023/01/25 05:35:55;;;;;;;0.00;0.00;;;1.20;86.90;;;;;;4962074;28;20488;-68
2023/01/25 05:38:21;;;;;;;0.00;0.00;;;1.20;87.00;;;;;;4967164;28;20054;-71
2023/01/25 05:40:46;;;;;;;0.00;0.00;;;1.20;87.00;;;;;;4957028;28;20130;-69
2023/01/25 05:43:12;;;;;;;0.15;0.15;;;1.30;86.90;;;;;;4970508;28;20105;-69
2023/01/25 05:45:39;;;;;;;0.00;0.00;;;1.30;86.80;;;;;;4970686;28;20511;-69
2023/01/25 05:48:04;;;;;;;0.57;0.57;;;1.20;86.80;;;;;;4970204;28;20055;-69
2023/01/25 05:50:30;;;;;;;1.15;1.05;;;1.30;86.90;;;;;;4951698;28;20538;-69
2023/01/25 05:52:55;;;;;;;0.00;0.00;;;1.20;86.70;;;;;;4970480;28;20137;-69
2023/01/25 05:55:21;;;;;;;0.10;0.10;;;1.20;86.80;;;;;;4970640;28;20058;-69
2023/01/25 05:57:47;;;;;;;0.00;0.00;;;1.20;86.90;;;;;;4966842;28;20061;-69
2023/01/25 06:00:13;;;;;;;0.30;0.30;;;1.30;86.90;;;;;;4961448;28;20043;-69
2023/01/25 06:02:38;;;;;;;0.00;0.00;;;1.30;86.90;;;;;;4966398;28;20066;-69
2023/01/25 06:05:04;;;;;;;0.00;0.00;;;1.30;86.80;;;;;;4951631;28;20055;-69
2023/01/25 06:07:37;;;;;;;0.00;0.00;;;1.30;86.90;;;;;;4955509;28;20621;-69
2023/01/25 06:10:04;;;;;;;0.20;0.20;;;1.30;86.70;;;;;;4965022;28;20045;-69
2023/01/25 06:12:29;;;;;;;0.10;0.10;;;1.20;86.50;;;;;;4961113;28;20066;-69
2023/01/25 06:14:55;;;;;;;0.00;0.00;;;1.10;86.80;;;;;;4964073;28;20061;-69
2023/01/25 06:17:21;;;;;;;0.10;0.10;;;1.10;87.00;;;;;;4963777;28;20089;-70
2023/01/25 06:19:46;;;;;;;0.00;0.00;;;1.20;87.00;;;;;;4967486;28;20078;-69
2023/01/25 06:22:12;;;;;;;0.05;0.05;;;1.10;86.90;;;;;;4951121;28;20067;-69
2023/01/25 06:24:38;;;;;;;0.00;0.00;;;1.20;86.80;;;;;;4970289;28;20084;-69
2023/01/25 06:27:03;;;;;;;0.00;0.00;;;1.10;86.80;;;;;;4938421;28;20512;-69
2023/01/25 06:29:29;;;;;;;0.10;0.10;;;1.00;86.90;;;;;;4950383;28;20472;-69
2023/01/25 06:31:54;;;;;;;0.05;0.05;;;0.90;87.10;;;;;;4950613;28;20114;-69
2023/01/25 06:34:21;;;;;;;0.00;0.00;;;1.00;87.30;;;;;;4955062;28;20053;-69
2023/01/25 06:36:47;;;;;;;0.10;0.10;;;1.10;87.20;;;;;;4965566;28;20129;-69
2023/01/25 06:39:13;;;;;;;0.28;0.28;;;1.00;87.30;;;;;;4952424;28;20047;-69
2023/01/25 06:41:38;;;;;;;0.10;0.10;;;1.00;87.40;;;;;;4961829;28;20086;-69
2023/01/25 06:44:04;;;;;;;0.08;0.08;;;1.00;87.40;;;;;;4962899;28;20050;-69
2023/01/25 06:46:31;;;;;;;0.00;0.00;;;1.10;87.40;;;;;;4965589;28;20058;-68
2023/01/25 06:48:57;;;;;;;0.10;0.10;;;1.10;87.60;;;;;;4949800;28;20582;-69
2023/01/25 06:51:22;;;;;;;0.63;0.63;;;1.10;87.80;;;;;;4954179;28;20051;-68
2023/01/25 06:53:48;;;;;;;0.80;0.80;;;1.10;87.80;;;;;;4963047;28;20054;-68
2023/01/25 06:56:20;;;;;;;0.20;0.20;;;1.10;87.50;;;;;;4967450;28;20146;-68
2023/01/25 06:58:46;;;;;;;1.20;1.13;;;1.10;87.60;;;;;;4954434;28;20050;-69
2023/01/25 07:01:18;;;;;;;0.43;0.43;;;1.10;87.70;;;;;;4950350;28;20059;-68
2023/01/25 07:03:50;;;;;;;0.00;0.00;;;1.00;87.80;;;;;;4932421;29;20067;-69
2023/01/25 07:06:17;;;;;;;0.00;0.00;;;0.90;88.00;;;;;;4954978;28;20063;-69
2023/01/25 07:08:42;;;;;;;0.00;0.00;;;0.90;88.10;;;;;;4960675;28;20047;-68
2023/01/25 07:11:12;;;;;;;0.00;0.00;;;0.90;88.20;;;;;;4965922;28;20055;-69
2023/01/25 07:13:39;;;;;;;3.95;1.13;;;1.00;88.30;;;;;;4969215;28;20046;-69
2023/01/25 07:16:07;;;;;;;0.38;0.38;;;1.00;88.10;;;;;;4957527;28;20512;-69
2023/01/25 07:18:36;;;;;;;0.45;0.35;;;1.00;88.00;;;;;;4960969;28;20039;-71
2023/01/25 07:21:07;;;;;;;0.00;0.00;;;1.10;89.00;;;;;;4964885;28;20062;-70
2023/01/25 07:23:33;;;;;;;0.10;0.10;;;1.30;89.50;;;;;;4961168;28;20042;-73
2023/01/25 07:25:59;;;;;;;0.10;0.10;;;1.50;89.10;;;;;;4966638;28;20411;-73
2023/01/25 07:28:26;;;;;;;2.80;2.65;;;1.50;88.90;;;;;;4969496;28;20059;-73
2023/01/25 07:30:51;;;;;;;0.15;0.15;;;1.40;88.40;;;;;;4952641;28;20046;-73
2023/01/25 07:33:17;;;;;;;0.00;0.00;;;1.30;88.40;;;;;;4968903;28;20050;-73
2023/01/25 07:35:42;;;;;;;0.00;0.00;;;2.50;93.50;;;;;;4971163;28;20044;-68
2023/01/25 07:38:08;;;;;;;0.00;0.00;;;2.30;90.30;;;;;;4970348;28;20487;-70
2023/01/25 07:40:34;;;;;;;0.25;0.25;;;2.20;89.80;;;;;;4954964;28;20471;-70
2023/01/25 07:43:00;;;;;;;0.00;0.00;;;1.90;88.50;;;;;;4966380;28;20043;-70
2023/01/25 07:45:29;;;;;;;0.10;0.10;;;1.60;88.30;;;;;;4971799;28;20090;-70
2023/01/25 07:47:56;;;;;;;0.38;0.17;;;1.50;88.20;;;;;;4954624;28;20411;-70
2023/01/25 07:50:22;;;;;;;0.10;0.10;;;1.50;88.10;;;;;;4970789;28;20479;-70
2023/01/25 07:52:47;;;;;;;1.15;1.08;;;1.40;88.10;;;;;;4951614;28;20047;-71
2023/01/25 07:55:14;;;;;;;0.00;0.00;;;1.50;88.10;;;;;;4941465;28;20511;-69
2023/01/25 07:57:39;;;;;;;0.38;0.38;;;1.50;88.10;;;;;;4951534;28;20062;-67
2023/01/25 08:00:06;;;;;;;0.40;0.40;;;1.50;88.10;;;;;;4970161;28;20378;-71
2023/01/25 08:02:32;;;;;;;0.10;0.10;;;1.40;87.60;;;;;;4951754;28;20141;-70
2023/01/25 08:04:57;;;;;;;0.10;0.10;;;1.40;88.00;;;;;;4955271;28;20142;-72
2023/01/25 08:07:23;;;;;;;1.40;0.73;;;1.40;88.10;;;;;;4962778;28;20141;-69
2023/01/25 08:09:49;;;;;;;0.08;0.08;;;1.30;88.00;;;;;;4955504;28;20050;-70
2023/01/25 08:12:16;;;;;;;1.55;0.90;;;1.30;88.10;;;;;;4972198;28;20050;-69
2023/01/25 08:14:42;;;;;;;0.10;0.10;;;1.30;88.20;;;;;;4955043;28;20046;-70
2023/01/25 08:17:07;;;;;;;0.20;0.20;;;1.30;88.20;;;;;;4972457;28;20105;-68
2023/01/25 08:19:33;;;;;;;4.78;0.88;;;1.40;88.80;;;;;;4971865;28;20051;-68
2023/01/25 08:21:58;;;;;;;0.43;0.40;;;1.40;88.70;;;;;;4953549;28;20049;-68
2023/01/25 08:24:24;;;;;;;0.10;0.10;;;1.30;88.70;;;;;;4972017;28;20073;-68
2023/01/25 08:26:49;;;;;;;0.45;0.40;;;1.40;88.90;;;;;;4971460;28;20051;-67
2023/01/25 08:29:15;;;;;;;0.70;0.70;;;1.40;88.80;;;;;;4969787;28;20415;-66
2023/01/25 08:31:44;;;;;;;0.08;0.08;;;1.40;88.80;;;;;;4954493;28;20046;-68
2023/01/25 08:34:10;;;;;;;0.00;0.00;;;1.40;88.80;;;;;;4969302;28;20094;-69
2023/01/25 08:36:36;;;;;;;0.00;0.00;;;1.40;88.80;;;;;;4970748;28;20094;-68
2023/01/25 08:39:04;;;;;;;0.03;0.03;;;1.40;88.50;;;;;;4970968;28;20039;-69
2023/01/25 08:41:32;;;;;;;0.03;0.03;;;1.40;88.70;;;;;;4970439;28;20113;-69
2023/01/25 08:43:58;;;;;;;0.10;0.10;;;1.30;88.90;;;;;;4970476;28;20043;-69
2023/01/25 08:46:25;;;;;;;1.13;0.77;;;1.20;88.90;;;;;;4970313;28;20054;-69
2023/01/25 08:48:55;;;;;;;0.00;0.00;;;1.30;89.00;;;;;;4969487;28;20051;-70
2023/01/25 08:51:21;;;;;;;0.10;0.10;;;1.30;89.00;;;;;;4971321;28;20043;-68
2023/01/25 08:53:46;;;;;;;0.00;0.00;;;1.40;89.00;;;;;;4977695;28;20700;-69
2023/01/25 08:56:14;;;;;;;0.08;0.08;;;1.40;89.00;;;;;;4982746;28;20066;-69
2023/01/25 08:58:47;;;;;;;0.08;0.08;;;1.50;89.10;;;;;;4980360;28;20101;-69
2023/01/25 09:01:15;;;;;;;0.00;0.00;;;1.50;88.90;;;;;;4974314;28;20050;-69
2023/01/25 09:03:43;;;;;;;2.25;0.75;;;1.60;89.00;;;;;;4970259;28;20066;-69
2023/01/25 09:06:09;;;;;;;0.10;0.10;;;1.60;88.80;;;;;;4955105;28;20050;-68
2023/01/25 09:08:36;;;;;;;0.03;0.03;;;1.60;88.80;;;;;;4952762;28;20495;-69
2023/01/25 09:11:07;;;;;;;0.00;0.00;;;1.60;88.90;;;;;;4974820;28;20046;-69
2023/01/25 09:13:33;;;;;;;0.00;0.00;;;1.60;88.90;;;;;;4973805;28;20121;-69
2023/01/25 09:16:08;;;;;;;0.00;0.00;;;1.60;89.00;;;;;;4971496;28;20043;-70
2023/01/25 09:18:36;;;;;;;0.00;0.00;;;1.60;88.90;;;;;;4935241;28;20058;-70
2023/01/25 09:21:09;;;;;;;0.00;0.00;;;1.60;88.80;;;;;;4969289;28;20042;-69
2023/01/25 09:23:35;;;;;;;0.00;0.00;;;1.70;89.00;;;;;;4971171;28;20078;-69
2023/01/25 09:26:01;;;;;;;0.10;0.10;;;1.70;88.90;;;;;;4970266;28;20183;-69
2023/01/25 09:28:29;;;;;;;0.22;0.22;;;1.70;89.00;;;;;;4949508;28;20057;-69
2023/01/25 09:30:55;;;;;;;1.45;1.42;;;1.70;89.00;;;;;;4970915;28;20130;-70
2023/01/25 09:33:27;;;;;;;0.50;0.50;;;1.70;89.10;;;;;;4967502;28;20057;-69
2023/01/25 09:35:53;;;;;;;0.03;0.03;;;1.70;89.00;;;;;;4971209;28;20042;-69
2023/01/25 09:38:18;;;;;;;0.00;0.00;;;1.80;89.00;;;;;;4971086;28;20419;-67
2023/01/25 09:41:03;;;;;;;0.10;0.10;;;1.70;88.90;;;;;;4970931;28;20098;-66
2023/01/25 09:43:40;;;;;;;0.00;0.00;;;1.70;88.90;;;;;;4970049;28;20042;-67
2023/01/25 09:46:30;;;;;;;0.55;0.55;;;1.80;88.80;;;;;;4971638;28;20046;-69
2023/01/25 09:49:34;;;;;;;0.10;0.10;;;2.00;89.50;;;;;;4952767;28;20046;-66
2023/01/25 09:52:10;;;;;;;0.00;0.00;;;2.00;89.10;;;;;;4967466;28;20043;-66
2023/01/25 09:54:39;;;;;;;0.10;0.10;;;2.00;89.10;;;;;;4968935;28;20121;-66
2023/01/25 09:57:28;;;;;;;0.10;0.10;;;2.00;88.90;;;;;;4968390;28;20063;-66
2023/01/25 09:59:55;;;;;;;0.10;0.10;;;1.90;89.00;;;;;;4966424;28;20043;-66
2023/01/25 10:02:46;;;;;;;0.00;0.00;;;1.90;89.00;;;;;;4949685;28;20061;-66
2023/01/25 10:05:19;;;;;;;4.85;1.25;;;1.90;89.00;;;;;;4950658;28;20051;-66
2023/01/25 10:07:52;;;;;;;0.13;0.13;;;1.90;88.90;;;;;;4966415;28;20125;-65
2023/01/25 10:10:40;;;;;;;0.10;0.10;;;1.80;88.80;;;;;;4968774;28;20102;-66
2023/01/25 10:13:11;;;;;;;0.63;0.63;;;1.80;88.90;;;;;;4969797;28;20069;-66
2023/01/25 10:15:42;;;;;;;0.00;0.00;;;1.80;88.90;;;;;;4969049;28;20070;-66
2023/01/25 10:19:01;;;;;;;0.20;0.20;;;1.80;88.90;;;;;;4966443;28;20051;-65
2023/01/25 10:21:42;;;;;;;0.22;0.22;;;1.70;88.90;;;;;;4930265;28;20302;-66
2023/01/25 10:24:42;;;;;;;0.35;0.35;;;1.70;89.00;;;;;;4947772;28;20817;-66
2023/01/25 10:27:21;;;;;;;2.53;2.30;;;1.70;89.00;;;;;;4968390;28;20114;-66
2023/01/25 10:29:48;;;;;;;0.03;0.03;;;1.80;89.10;;;;;;4968623;28;20042;-66
2023/01/25 10:32:33;;;;;;;0.45;0.45;;;1.80;89.10;;;;;;4968712;28;20086;-66
2023/01/25 10:35:15;;;;;;;1.65;1.55;;;1.80;89.20;;;;;;4951271;28;20535;-66
2023/01/25 10:37:41;;;;;;;0.00;0.00;;;1.80;89.20;;;;;;4969184;28;20043;-66
2023/01/25 10:40:22;;;;;;;3.42;2.05;;;1.80;89.10;;;;;;4951438;28;20061;-70
2023/01/25 10:42:58;;;;;;;0.10;0.10;;;1.90;89.20;;;;;;4969407;28;20058;-69
2023/01/25 10:45:24;;;;;;;0.00;0.00;;;1.90;89.30;;;;;;4967686;28;20130;-72
2023/01/25 10:47:56;;;;;;;0.10;0.10;;;2.00;89.20;;;;;;4968392;28;20475;-69
2023/01/25 10:50:37;;;;;;;;;;;2.00;89.10;;;;;;4968283;28;20166;-67
2023/01/25 10:53:03;;;;;;;0.10;0.10;;;2.10;89.60;;;;;;4966497;28;21700;-67
2023/01/25 10:55:29;;;;;;;0.73;0.40;;;2.00;89.40;;;;;;4968281;28;20061;-67
2023/01/25 10:57:59;;;;;;;0.60;0.60;;;2.10;89.40;;;;;;4968448;28;20047;-67
2023/01/25 11:00:27;;;;;;;3.40;0.85;;;2.00;89.30;;;;;;4967332;28;20550;-67
2023/01/25 11:02:53;;;;;;;5.40;1.38;;;2.00;89.40;;;;;;4968509;28;20055;-68
2023/01/25 11:05:28;;;;;;;0.25;0.25;;;2.00;89.50;;;;;;4950826;28;20094;-67
2023/01/25 11:07:55;;;;;;;0.28;0.28;;;2.00;89.40;;;;;;4967040;28;20443;-69
2023/01/25 11:10:32;;;;;;;2.55;2.00;;;2.00;89.50;;;;;;4950001;28;20416;-73
2023/01/25 11:13:18;;;;;;;2.42;1.65;;;2.10;89.60;;;;;;4945918;28;20058;-69
2023/01/25 11:15:46;;;;;;;0.20;0.20;;;2.10;89.40;;;;;;4951272;28;20051;-69
2023/01/25 11:18:23;;;;;;;0.10;0.10;;;2.00;89.50;;;;;;4949101;28;20804;-70
2023/01/25 11:21:10;;;;;;;0.10;0.10;;;2.00;89.60;;;;;;4967580;28;20038;-69
2023/01/25 11:23:35;;;;;;;0.50;0.50;;;2.10;89.50;;;;;;4967288;28;20126;-69
2023/01/25 11:26:18;;;;;;;0.10;0.10;;;2.10;89.70;;;;;;4968228;28;20130;-69
2023/01/25 11:28:47;;;;;;;0.47;0.47;;;2.00;89.70;;;;;;4968628;28;20051;-70
2023/01/25 11:31:16;;;;;;;0.38;0.38;;;2.00;89.70;;;;;;4967937;28;20146;-70
2023/01/25 11:33:42;;;;;;;0.10;0.10;;;2.10;89.80;;;;;;4967854;28;20039;-70
2023/01/25 11:36:29;;;;;;;0.28;0.28;;;2.00;89.70;;;;;;4967515;28;20093;-70
2023/01/25 11:39:05;;;;;;;0.20;0.20;;;2.10;89.70;;;;;;4967874;28;20035;-70
2023/01/25 11:41:57;;;;;;;0.80;0.80;;;2.10;89.80;;;;;;4965932;28;20524;-69
2023/01/25 11:44:39;;;;;;;0.10;0.10;;;2.10;89.70;;;;;;4966573;28;20118;-70
2023/01/25 11:47:15;;;;;;;0.57;0.57;;;2.00;89.70;;;;;;4964662;28;20063;-70
2023/01/25 11:49:43;;;;;;;0.63;0.63;;;2.00;89.70;;;;;;4965588;28;20047;-69
2023/01/25 11:52:27;;;;;;;0.15;0.15;;;2.00;89.70;;;;;;4949534;28;20542;-70
2023/01/25 11:55:22;;;;;;;0.70;0.40;;;2.00;90.00;;;;;;4967858;28;20073;-70
2023/01/25 11:58:18;;;;;;;2.75;1.15;;;2.00;89.90;;;;;;4965295;28;20078;-70
2023/01/25 12:01:35;;;;;;;0.22;0.22;;;2.00;89.80;;;;;;4966143;28;20054;-70
2023/01/25 12:04:22;;;;;;;0.75;0.75;;;2.10;90.00;;;;;;4906165;29;20044;-69
2023/01/25 12:07:02;;;;;;;0.20;0.20;;;2.10;90.00;;;;;;4962089;28;20055;-69
2023/01/25 12:10:02;;;;;;;0.15;0.15;;;2.10;90.00;;;;;;4966669;28;20074;-69
2023/01/25 12:12:50;;;;;;;0.52;0.52;;;2.10;90.00;;;;;;4949458;28;20054;-70
2023/01/25 12:15:41;;;;;;;1.25;1.13;;;2.10;90.00;;;;;;4933301;28;20128;-70
2023/01/25 12:18:27;;;;;;;0.88;0.82;;;2.20;90.00;;;;;;4964079;28;20393;-69
2023/01/25 12:21:02;;;;;;;1.20;1.10;;;2.10;90.10;;;;;;4967120;28;20034;-69
2023/01/25 12:23:52;;;;;;;0.40;0.40;;;2.20;90.00;;;;;;4950157;28;20047;-69
2023/01/25 12:26:25;;;;;;;0.10;0.10;;;2.20;90.00;;;;;;4967535;28;20150;-69
2023/01/25 12:29:01;;;;;;;0.10;0.10;;;2.20;90.00;;;;;;4966514;28;20050;-69
2023/01/25 12:32:12;;;;;;;0.80;0.80;;;2.20;90.10;;;;;;4949678;28;20847;-69
2023/01/25 12:34:42;;;;;;;0.20;0.20;;;2.20;90.00;;;;;;4886298;29;20048;-69
2023/01/25 12:37:28;;;;;;;3.88;2.70;;;2.30;90.20;;;;;;4871746;29;20055;-69
2023/01/25 12:40:03;;;;;;;2.55;1.75;;;2.30;90.20;;;;;;4940157;28;20082;-69
2023/01/25 12:42:39;;;;;;;0.30;0.30;;;2.30;90.20;;;;;;4965134;28;20232;-69
2023/01/25 12:45:19;;;;;;;0.10;0.10;;;2.40;90.20;;;;;;4949485;28;20110;-69
2023/01/25 12:47:55;;;;;;;0.10;0.10;;;2.40;90.00;;;;;;4949679;28;20054;-68
2023/01/25 12:50:33;;;;;;;2.25;1.85;;;2.50;90.00;;;;;;4930043;28;20142;-69
2023/01/25 12:53:23;;;;;;;0.30;0.30;;;2.60;89.80;;;;;;4969938;28;20043;-68
2023/01/25 12:55:49;;;;;;;0.38;0.38;;;2.60;89.50;;;;;;4969261;28;20546;-69
2023/01/25 12:58:39;;;;;;;0.63;0.63;;;2.40;89.40;;;;;;4970120;28;20042;-68
2023/01/25 13:01:34;;;;;;;0.43;0.43;;;2.50;89.50;;;;;;4953093;28;20078;-68
2023/01/25 13:04:08;;;;;;;0.15;0.15;;;2.60;89.50;;;;;;4970396;28;20039;-68
2023/01/25 13:06:44;;;;;;;0.10;0.10;;;2.50;89.40;;;;;;4970003;28;20050;-68
2023/01/25 13:09:20;;;;;;;0.00;0.00;;;2.50;89.30;;;;;;4970095;28;20053;-68
2023/01/25 13:11:47;;;;;;;1.85;0.50;;;2.60;89.30;;;;;;4969981;28;20054;-70
2023/01/25 13:14:15;;;;;;;1.15;1.15;;;2.60;89.20;;;;;;4937758;28;20058;-69
2023/01/25 13:16:42;;;;;;;0.10;0.10;;;3.00;90.30;;;;;;4952331;28;20062;-68
2023/01/25 13:19:42;;;;;;;2.20;0.90;;;3.10;90.00;;;;;;4953463;28;20049;-68